Time;durP1;ratioP1;P1;durP2;ratioP2;P2;SDS_P1;SDS_P2;PMS_P1;PMS_P2;Temp;Humidity;BMP_temperature;BMP_pressure;BME280_temperature;BME280_humidity;BME280_pressure;Samples;Min_cycle;Max_cycle;Signal;HPM_P1;HPM_P2
2021/03/03 00:02:23;;;;;;;48.58;21.83;;;8.70;99.90;;;;;;6273665;22;20026;-72
2021/03/03 00:04:49;;;;;;;46.13;22.58;;;8.70;99.90;;;;;;6273522;22;20401;-72
2021/03/03 00:07:15;;;;;;;39.38;21.42;;;8.70;99.90;;;;;;6272133;22;20061;-72
2021/03/03 00:09:41;;;;;;;42.30;21.52;;;8.60;99.90;;;;;;6270481;22;20038;-72
2021/03/03 00:12:08;;;;;;;39.65;21.23;;;8.60;99.90;;;;;;6273019;22;20101;-72
2021/03/03 00:14:34;;;;;;;40.97;21.13;;;8.60;99.90;;;;;;6274405;22;20027;-72
2021/03/03 00:16:59;;;;;;;46.60;22.23;;;8.60;99.90;;;;;;6274015;22;20413;-72
2021/03/03 00:19:25;;;;;;;41.75;24.42;;;8.50;99.90;;;;;;6273695;22;20012;-72
2021/03/03 00:21:51;;;;;;;47.95;22.50;;;8.50;99.90;;;;;;6273437;22;20087;-73
2021/03/03 00:24:16;;;;;;;43.72;21.73;;;8.50;99.90;;;;;;6273657;22;20375;-72
2021/03/03 00:26:42;;;;;;;41.97;21.95;;;8.50;99.90;;;;;;6273133;22;20022;-73
2021/03/03 00:29:07;;;;;;;42.88;21.75;;;8.40;99.90;;;;;;6274475;22;20053;-72
2021/03/03 00:31:33;;;;;;;40.00;22.13;;;8.30;99.90;;;;;;6272712;22;20356;-73
2021/03/03 00:33:59;;;;;;;44.15;23.08;;;8.40;99.90;;;;;;6271678;22;20057;-72
2021/03/03 00:36:24;;;;;;;45.55;22.90;;;8.40;99.90;;;;;;6273903;22;20003;-73
2021/03/03 00:38:50;;;;;;;42.13;21.50;;;8.40;99.90;;;;;;6273445;22;20000;-73
2021/03/03 00:41:16;;;;;;;45.47;22.33;;;8.40;99.90;;;;;;6272543;22;20078;-73
2021/03/03 00:43:41;;;;;;;40.05;20.73;;;8.30;99.90;;;;;;6273690;22;19996;-73
2021/03/03 00:46:08;;;;;;;50.78;24.63;;;8.30;99.90;;;;;;6271996;22;20018;-73
2021/03/03 00:48:34;;;;;;;43.92;23.98;;;8.30;99.90;;;;;;6275033;22;20025;-73
2021/03/03 00:50:59;;;;;;;39.85;21.70;;;8.30;99.90;;;;;;6275142;22;20091;-73
2021/03/03 00:53:25;;;;;;;39.15;20.90;;;8.30;99.90;;;;;;6275220;22;20058;-73
2021/03/03 00:55:51;;;;;;;39.53;20.83;;;8.30;99.90;;;;;;6272693;22;20043;-73
2021/03/03 00:58:18;;;;;;;43.03;21.15;;;8.30;99.90;;;;;;6272468;22;20004;-73
2021/03/03 01:00:44;;;;;;;42.80;21.42;;;8.20;99.90;;;;;;6273404;22;20436;-73
2021/03/03 01:03:10;;;;;;;41.42;21.38;;;8.10;99.90;;;;;;6274838;22;20002;-73
2021/03/03 01:05:38;;;;;;;33.40;19.35;;;8.20;99.90;;;;;;6272619;22;20012;-73
2021/03/03 01:08:04;;;;;;;46.28;22.25;;;8.20;99.90;;;;;;6275043;22;19996;-73
2021/03/03 01:10:29;;;;;;;40.38;22.13;;;8.20;99.90;;;;;;6273858;22;20011;-73
2021/03/03 01:12:55;;;;;;;40.13;20.25;;;8.10;99.90;;;;;;6275260;22;20302;-73
2021/03/03 01:15:21;;;;;;;39.97;20.98;;;8.20;99.90;;;;;;6272863;22;20024;-73
2021/03/03 01:17:46;;;;;;;38.22;21.73;;;8.20;99.90;;;;;;6274576;22;20045;-73
2021/03/03 01:20:12;;;;;;;39.55;21.00;;;8.10;99.90;;;;;;6274460;22;20008;-73
2021/03/03 01:22:38;;;;;;;41.47;21.55;;;8.10;99.90;;;;;;6274707;22;20033;-73
2021/03/03 01:25:04;;;;;;;38.95;21.08;;;8.10;99.90;;;;;;6273018;22;20015;-73
2021/03/03 01:27:30;;;;;;;39.30;21.85;;;8.00;99.90;;;;;;6273340;22;20461;-72
2021/03/03 01:29:56;;;;;;;39.90;20.95;;;8.00;99.90;;;;;;6272644;22;20030;-73
2021/03/03 01:32:21;;;;;;;42.17;21.08;;;7.90;99.90;;;;;;6274268;22;20006;-73
2021/03/03 01:34:47;;;;;;;36.85;20.83;;;7.90;99.90;;;;;;6273284;22;20068;-73
2021/03/03 01:37:13;;;;;;;38.97;19.40;;;7.90;99.90;;;;;;6273087;22;19999;-73
2021/03/03 01:39:38;;;;;;;35.10;19.17;;;7.90;99.90;;;;;;6274283;22;20004;-73
2021/03/03 01:42:04;;;;;;;39.08;20.15;;;7.90;99.90;;;;;;6274841;22;19996;-73
2021/03/03 01:44:30;;;;;;;40.53;20.23;;;7.80;99.90;;;;;;6272952;22;20007;-73
2021/03/03 01:46:55;;;;;;;32.97;18.83;;;7.70;99.90;;;;;;6271588;22;20487;-73
2021/03/03 01:49:21;;;;;;;33.47;19.63;;;7.70;99.90;;;;;;6274368;22;20000;-73
2021/03/03 01:51:47;;;;;;;37.92;20.95;;;7.70;99.90;;;;;;6272526;22;20011;-73
2021/03/03 01:54:12;;;;;;;33.47;20.67;;;7.70;99.90;;;;;;6274509;22;20079;-73
2021/03/03 01:56:38;;;;;;;35.85;19.35;;;7.60;99.90;;;;;;6275809;22;20133;-73
2021/03/03 01:59:04;;;;;;;36.95;20.30;;;7.60;99.90;;;;;;6272726;22;20436;-73
2021/03/03 02:01:29;;;;;;;39.83;21.13;;;7.70;99.90;;;;;;6273371;22;19996;-73
2021/03/03 02:03:55;;;;;;;35.97;20.50;;;7.60;99.90;;;;;;6275093;22;20008;-73
2021/03/03 02:06:43;;;;;;;37.25;19.67;;;7.60;99.90;;;;;;6273982;22;20008;-73
2021/03/03 02:09:17;;;;;;;47.60;19.77;;;7.50;99.90;;;;;;6272869;22;20053;-73
2021/03/03 02:11:52;;;;;;;41.67;20.85;;;7.40;99.90;;;;;;6272507;22;20000;-73
2021/03/03 02:14:21;;;;;;;44.75;22.08;;;7.40;99.90;;;;;;6274338;22;20417;-73
2021/03/03 02:16:49;;;;;;;43.42;19.65;;;7.40;99.90;;;;;;6272911;22;20042;-73
2021/03/03 02:19:28;;;;;;;39.08;19.73;;;7.40;99.90;;;;;;6272390;22;19996;-73
2021/03/03 02:22:25;;;;;;;36.15;18.30;;;7.40;99.90;;;;;;6272394;22;20011;-73
2021/03/03 02:25:16;;;;;;;34.63;18.45;;;7.50;99.90;;;;;;6273086;22;20042;-74
2021/03/03 02:27:42;;;;;;;34.33;19.02;;;7.40;99.90;;;;;;6273155;22;20000;-72
2021/03/03 02:30:09;;;;;;;39.20;20.13;;;7.30;99.90;;;;;;6272646;22;20004;-73
2021/03/03 02:32:35;;;;;;;40.17;19.50;;;7.30;99.90;;;;;;6273865;22;20055;-73
2021/03/03 02:35:01;;;;;;;35.40;18.65;;;7.30;99.90;;;;;;6273704;22;20003;-72
2021/03/03 02:37:27;;;;;;;43.10;21.85;;;7.30;99.90;;;;;;6273225;22;20008;-73
2021/03/03 02:39:53;;;;;;;45.35;22.67;;;7.30;99.90;;;;;;6274459;22;20004;-72
2021/03/03 02:42:20;;;;;;;42.47;20.90;;;7.30;99.90;;;;;;6274131;22;20004;-73
2021/03/03 02:44:47;;;;;;;43.05;22.40;;;7.30;99.90;;;;;;6274557;22;20930;-72
2021/03/03 02:47:14;;;;;;;37.33;21.27;;;7.30;99.90;;;;;;6273448;22;20062;-72
2021/03/03 02:49:42;;;;;;;44.08;19.58;;;7.20;99.90;;;;;;6272293;22;20023;-72
2021/03/03 02:52:07;;;;;;;42.63;21.80;;;7.30;99.90;;;;;;6273931;22;20000;-72
2021/03/03 02:54:33;;;;;;;38.00;22.20;;;7.30;99.90;;;;;;6272791;22;20007;-72
2021/03/03 02:56:59;;;;;;;40.67;21.15;;;7.30;99.90;;;;;;6276253;22;20003;-72
2021/03/03 02:59:38;;;;;;;47.53;21.70;;;7.30;99.90;;;;;;6275689;22;20004;-72
2021/03/03 03:02:10;;;;;;;38.10;20.38;;;7.30;99.90;;;;;;6276472;22;20007;-73
2021/03/03 03:04:42;;;;;;;45.85;23.08;;;7.30;99.90;;;;;;6276575;22;20027;-73
2021/03/03 03:07:18;;;;;;;48.40;20.88;;;7.20;99.90;;;;;;6273959;22;20341;-73
2021/03/03 03:09:46;;;;;;;36.65;18.88;;;7.20;99.90;;;;;;6276168;22;19995;-73
2021/03/03 03:12:17;;;;;;;38.83;21.00;;;7.20;99.90;;;;;;6275686;22;20000;-73
2021/03/03 03:14:46;;;;;;;43.15;20.92;;;7.30;99.90;;;;;;6276007;22;19996;-73
2021/03/03 03:17:13;;;;;;;39.42;20.30;;;7.20;99.90;;;;;;6276183;22;20370;-73
2021/03/03 03:19:42;;;;;;;40.00;20.95;;;7.20;99.90;;;;;;6275512;22;20073;-73
2021/03/03 03:22:09;;;;;;;39.78;20.17;;;7.20;99.90;;;;;;6273391;22;20003;-73
2021/03/03 03:24:37;;;;;;;41.50;20.33;;;7.30;99.90;;;;;;6274063;22;20034;-72
2021/03/03 03:27:05;;;;;;;47.42;22.52;;;7.30;99.90;;;;;;6275569;22;20008;-73
2021/03/03 03:29:32;;;;;;;46.83;22.38;;;7.20;99.90;;;;;;6275295;22;19996;-73
2021/03/03 03:31:58;;;;;;;43.35;21.73;;;7.30;99.90;;;;;;6275513;22;20092;-72
2021/03/03 03:34:24;;;;;;;43.20;20.80;;;7.20;99.90;;;;;;6275548;22;19996;-72
2021/03/03 03:36:51;;;;;;;42.33;19.42;;;7.30;99.90;;;;;;6276277;22;20022;-72
2021/03/03 03:39:17;;;;;;;42.10;19.88;;;7.20;99.90;;;;;;6275322;22;20003;-72
2021/03/03 03:41:46;;;;;;;39.55;18.85;;;7.20;99.90;;;;;;6273228;22;20049;-72
2021/03/03 03:44:12;;;;;;;39.15;18.38;;;7.20;99.90;;;;;;6275668;22;20420;-72
2021/03/03 03:46:40;;;;;;;32.88;18.27;;;7.20;99.90;;;;;;6273509;22;20100;-73
2021/03/03 03:49:06;;;;;;;34.00;19.25;;;7.10;99.90;;;;;;6275972;22;20014;-73
2021/03/03 03:51:32;;;;;;;38.47;19.73;;;7.10;99.90;;;;;;6273155;22;20329;-72
2021/03/03 03:53:58;;;;;;;37.35;18.70;;;7.20;99.90;;;;;;6275656;22;20397;-73
2021/03/03 03:56:23;;;;;;;46.03;19.55;;;7.20;99.90;;;;;;6273510;22;20073;-72
2021/03/03 03:58:49;;;;;;;38.83;19.02;;;7.20;99.90;;;;;;6274200;22;20426;-73
2021/03/03 04:01:15;;;;;;;43.95;20.38;;;7.20;99.90;;;;;;6275562;22;20003;-72
2021/03/03 04:03:40;;;;;;;36.08;19.10;;;7.20;99.90;;;;;;6275304;22;20302;-73
2021/03/03 04:06:06;;;;;;;38.72;19.92;;;7.20;99.90;;;;;;6274622;22;20034;-72
2021/03/03 04:08:32;;;;;;;40.30;18.52;;;7.10;99.90;;;;;;6275892;22;20036;-73
2021/03/03 04:10:58;;;;;;;37.63;20.27;;;7.20;99.90;;;;;;6275643;22;20000;-72
2021/03/03 04:13:24;;;;;;;38.22;19.00;;;7.10;99.90;;;;;;6273307;22;20125;-73
2021/03/03 04:15:49;;;;;;;40.70;19.38;;;7.20;99.90;;;;;;6274070;22;20007;-72
2021/03/03 04:18:16;;;;;;;36.78;19.38;;;7.20;99.90;;;;;;6274859;22;20009;-73
2021/03/03 04:20:41;;;;;;;34.88;18.20;;;7.20;99.90;;;;;;6273839;22;20004;-73
2021/03/03 04:23:09;;;;;;;39.45;18.10;;;7.20;99.90;;;;;;6274172;22;20369;-72
2021/03/03 04:25:35;;;;;;;35.28;18.23;;;7.20;99.90;;;;;;6272663;22;20338;-72
2021/03/03 04:28:01;;;;;;;39.22;18.85;;;7.10;99.90;;;;;;6274911;22;19999;-73
2021/03/03 04:30:27;;;;;;;36.28;19.30;;;7.20;99.90;;;;;;6275022;22;20026;-72
2021/03/03 04:32:53;;;;;;;37.13;18.58;;;7.20;99.90;;;;;;6275428;22;20752;-72
2021/03/03 04:35:18;;;;;;;39.55;18.90;;;7.20;99.90;;;;;;6274426;22;19995;-72
2021/03/03 04:37:44;;;;;;;39.03;18.95;;;7.20;99.90;;;;;;6274165;22;20071;-72
2021/03/03 04:40:11;;;;;;;39.15;20.00;;;7.20;99.90;;;;;;6274933;22;20000;-73
2021/03/03 04:42:36;;;;;;;36.92;20.05;;;7.20;99.90;;;;;;6275081;22;19999;-72
2021/03/03 04:45:07;;;;;;;42.10;19.83;;;7.20;99.90;;;;;;6274911;22;20010;-72
2021/03/03 04:47:32;;;;;;;34.78;19.00;;;7.20;99.90;;;;;;6271829;22;20340;-72
2021/03/03 04:49:58;;;;;;;36.08;19.33;;;7.20;99.90;;;;;;6275122;22;20000;-72
2021/03/03 04:52:24;;;;;;;39.85;20.67;;;7.20;99.90;;;;;;6275368;22;20385;-72
2021/03/03 04:54:49;;;;;;;36.58;20.10;;;7.20;99.90;;;;;;6275145;22;20012;-72
2021/03/03 04:57:15;;;;;;;41.70;21.00;;;7.20;99.90;;;;;;6274752;22;20004;-72
2021/03/03 04:59:41;;;;;;;39.85;20.55;;;7.20;99.90;;;;;;6274740;22;20046;-72
2021/03/03 05:02:07;;;;;;;39.15;21.85;;;7.20;99.90;;;;;;6274765;22;20004;-73
2021/03/03 05:04:32;;;;;;;38.60;19.60;;;7.30;99.90;;;;;;6274846;22;20409;-72
2021/03/03 05:06:58;;;;;;;38.55;20.00;;;7.40;99.90;;;;;;6274047;22;20337;-73
2021/03/03 05:09:23;;;;;;;42.05;24.08;;;7.40;99.90;;;;;;6273073;22;20046;-73
2021/03/03 05:11:49;;;;;;;35.33;19.92;;;7.40;99.90;;;;;;6273731;22;20008;-72
2021/03/03 05:14:15;;;;;;;43.42;21.15;;;7.40;99.90;;;;;;6275129;22;20000;-72
2021/03/03 05:16:41;;;;;;;36.55;19.77;;;7.40;99.90;;;;;;6274177;22;20368;-72
2021/03/03 05:19:07;;;;;;;41.53;20.70;;;7.40;99.90;;;;;;6273724;22;20007;-72
2021/03/03 05:21:33;;;;;;;34.72;19.38;;;7.40;99.90;;;;;;6274420;22;20044;-72
2021/03/03 05:23:58;;;;;;;39.00;18.98;;;7.40;99.90;;;;;;6274356;22;20000;-72
2021/03/03 05:26:24;;;;;;;40.20;21.10;;;7.50;99.90;;;;;;6271516;22;20027;-73
2021/03/03 05:28:50;;;;;;;41.83;19.35;;;7.50;99.90;;;;;;6274435;22;19995;-73
2021/03/03 05:31:16;;;;;;;43.88;20.27;;;7.40;99.90;;;;;;6272970;22;20421;-73
2021/03/03 05:33:43;;;;;;;49.08;21.33;;;7.40;99.90;;;;;;6272207;22;20000;-73
2021/03/03 05:36:09;;;;;;;45.60;21.80;;;7.50;99.90;;;;;;6275183;22;20003;-73
2021/03/03 05:38:37;;;;;;;43.47;21.65;;;7.40;99.90;;;;;;6274505;22;20011;-73
2021/03/03 05:41:03;;;;;;;46.42;21.80;;;7.40;99.90;;;;;;6274822;22;20000;-73
2021/03/03 05:43:33;;;;;;;46.22;21.88;;;7.40;99.90;;;;;;6274287;22;20003;-73
2021/03/03 05:46:00;;;;;;;37.33;20.42;;;7.40;99.90;;;;;;6273370;22;20046;-73
2021/03/03 05:48:31;;;;;;;38.50;21.42;;;7.50;99.90;;;;;;6275283;22;20074;-73
2021/03/03 05:51:01;;;;;;;48.25;22.30;;;7.50;99.90;;;;;;6274084;22;20027;-72
2021/03/03 05:53:32;;;;;;;44.35;22.20;;;7.50;99.90;;;;;;6274037;22;19999;-73
2021/03/03 05:56:03;;;;;;;52.63;23.83;;;7.50;99.90;;;;;;6271326;22;20016;-73
2021/03/03 05:58:39;;;;;;;45.55;22.35;;;7.50;99.90;;;;;;6274708;22;20008;-74
2021/03/03 06:01:07;;;;;;;63.42;36.35;;;7.50;99.90;;;;;;6274543;22;20014;-73
2021/03/03 06:03:33;;;;;;;48.17;24.65;;;7.50;99.90;;;;;;6270995;22;20006;-73
2021/03/03 06:06:00;;;;;;;41.20;22.02;;;7.50;99.90;;;;;;6271928;22;20011;-73
2021/03/03 06:08:30;;;;;;;49.42;21.88;;;7.50;99.90;;;;;;6273588;22;20011;-74
2021/03/03 06:10:57;;;;;;;42.53;21.13;;;7.50;99.90;;;;;;6273670;22;20440;-72
2021/03/03 06:13:22;;;;;;;42.85;21.30;;;7.50;99.90;;;;;;6274310;22;20029;-73
2021/03/03 06:15:49;;;;;;;47.22;23.42;;;7.50;99.90;;;;;;6272222;22;20011;-73
2021/03/03 06:18:16;;;;;;;44.60;22.15;;;7.50;99.90;;;;;;6273473;22;19999;-73
2021/03/03 06:20:43;;;;;;;51.83;25.35;;;7.50;99.90;;;;;;6273984;22;20023;-73
2021/03/03 06:23:24;;;;;;;48.13;23.58;;;7.50;99.90;;;;;;6272152;22;20629;-73
2021/03/03 06:26:03;;;;;;;44.75;22.65;;;7.50;99.90;;;;;;6273235;22;20122;-73
2021/03/03 06:28:45;;;;;;;42.55;22.55;;;7.60;99.90;;;;;;6273624;22;20023;-73
2021/03/03 06:31:26;;;;;;;48.70;23.48;;;7.50;99.90;;;;;;6276293;22;20045;-73
2021/03/03 06:33:53;;;;;;;46.17;22.85;;;7.60;99.90;;;;;;6275661;22;20018;-73
2021/03/03 06:36:29;;;;;;;48.72;22.40;;;7.60;99.90;;;;;;6276234;22;20508;-72
2021/03/03 06:38:55;;;;;;;46.88;24.08;;;7.60;99.90;;;;;;6274763;22;20000;-73
2021/03/03 06:41:21;;;;;;;48.30;23.15;;;7.60;99.90;;;;;;6275549;22;20126;-73
2021/03/03 06:43:56;;;;;;;52.80;22.92;;;7.60;99.90;;;;;;6276292;22;20733;-73
2021/03/03 06:46:22;;;;;;;42.60;22.40;;;7.70;99.90;;;;;;6275552;22;20019;-73
2021/03/03 06:48:49;;;;;;;46.17;23.38;;;7.70;99.90;;;;;;6276265;22;20007;-73
2021/03/03 06:51:34;;;;;;;44.95;23.50;;;7.80;99.90;;;;;;6275979;22;20003;-73
2021/03/03 06:54:02;;;;;;;43.88;21.80;;;7.80;99.90;;;;;;6277068;22;20023;-73
2021/03/03 06:56:32;;;;;;;49.33;23.08;;;7.80;99.90;;;;;;6276295;22;20004;-73
2021/03/03 06:59:20;;;;;;;43.83;22.77;;;7.80;99.90;;;;;;6276220;22;20069;-73
2021/03/03 07:02:07;;;;;;;50.95;24.77;;;7.90;99.90;;;;;;6273348;22;20009;-72
2021/03/03 07:04:37;;;;;;;47.63;22.40;;;7.90;99.90;;;;;;6274910;22;20004;-73
2021/03/03 07:07:03;;;;;;;44.30;23.05;;;8.00;99.90;;;;;;6272759;22;20429;-72
2021/03/03 07:09:45;;;;;;;46.33;25.60;;;8.00;99.90;;;;;;6272061;22;20039;-73
2021/03/03 07:12:13;;;;;;;56.65;23.35;;;7.90;99.90;;;;;;6274891;22;20027;-73
2021/03/03 07:14:40;;;;;;;41.20;21.83;;;7.90;99.90;;;;;;6273918;22;20064;-73
2021/03/03 07:17:12;;;;;;;45.70;24.15;;;7.90;99.90;;;;;;6273925;22;20007;-73
2021/03/03 07:19:40;;;;;;;51.28;23.40;;;8.10;99.90;;;;;;6275420;22;20349;-73
2021/03/03 07:22:19;;;;;;;49.17;25.52;;;8.10;99.90;;;;;;6275320;22;20018;-74
2021/03/03 07:24:46;;;;;;;45.90;22.92;;;8.20;99.90;;;;;;6271245;22;20046;-74
2021/03/03 07:27:18;;;;;;;51.38;24.20;;;8.20;99.90;;;;;;6271451;22;19996;-73
2021/03/03 07:29:47;;;;;;;57.40;24.92;;;8.30;99.90;;;;;;6273779;22;20181;-73
2021/03/03 07:32:12;;;;;;;50.70;24.95;;;8.30;99.90;;;;;;6275085;22;19999;-73
2021/03/03 07:34:40;;;;;;;52.10;24.63;;;8.30;99.90;;;;;;6273715;22;20049;-73
2021/03/03 07:37:07;;;;;;;55.88;26.33;;;8.40;99.90;;;;;;6272857;22;20022;-73
2021/03/03 07:39:36;;;;;;;48.03;24.65;;;8.40;99.90;;;;;;6271554;22;20008;-72
2021/03/03 07:42:02;;;;;;;50.38;23.67;;;8.30;99.90;;;;;;6273577;22;20358;-73
2021/03/03 07:44:29;;;;;;;44.85;22.55;;;8.40;99.90;;;;;;6274785;22;20330;-73
2021/03/03 07:46:56;;;;;;;47.75;24.38;;;8.40;99.90;;;;;;6270145;22;20091;-73
2021/03/03 07:49:24;;;;;;;50.95;24.95;;;8.50;99.90;;;;;;6273963;22;20451;-73
2021/03/03 07:51:50;;;;;;;60.50;27.98;;;8.50;99.90;;;;;;6271930;22;20297;-73
2021/03/03 07:54:16;;;;;;;57.58;26.85;;;8.60;99.90;;;;;;6275552;22;20031;-73
2021/03/03 07:56:43;;;;;;;51.38;26.55;;;8.70;99.90;;;;;;6273364;22;20341;-72
2021/03/03 07:59:10;;;;;;;49.58;25.90;;;8.70;99.90;;;;;;6271424;22;20447;-72
2021/03/03 08:01:36;;;;;;;54.15;29.67;;;8.80;99.90;;;;;;6255649;22;20145;-72
2021/03/03 08:04:02;;;;;;;52.03;28.15;;;8.90;99.90;;;;;;6267733;22;20003;-72
2021/03/03 08:06:34;;;;;;;53.63;26.00;;;9.00;99.90;;;;;;6271201;22;20440;-73
2021/03/03 08:09:18;;;;;;;62.45;29.38;;;9.00;99.90;;;;;;6273155;22;20425;-73
2021/03/03 08:11:46;;;;;;;53.67;27.50;;;9.20;99.90;;;;;;6273384;22;20357;-73
2021/03/03 08:14:38;;;;;;;52.00;27.83;;;9.20;99.90;;;;;;6273980;22;20027;-72
2021/03/03 08:17:10;;;;;;;53.90;28.30;;;9.30;99.90;;;;;;6267410;22;20097;-72
2021/03/03 08:19:59;;;;;;;56.30;26.90;;;9.40;99.90;;;;;;6272610;22;20143;-72
2021/03/03 08:22:48;;;;;;;56.00;27.83;;;9.50;99.90;;;;;;6271492;22;20012;-73
2021/03/03 08:25:47;;;;;;;59.55;26.88;;;9.60;99.90;;;;;;6270804;22;20027;-72
2021/03/03 08:28:37;;;;;;;55.10;28.25;;;9.70;99.90;;;;;;6270781;22;20577;-73
2021/03/03 08:31:11;;;;;;;57.45;29.60;;;9.80;99.90;;;;;;6261290;22;20458;-73
2021/03/03 08:33:49;;;;;;;57.25;27.98;;;10.00;99.90;;;;;;6273786;22;20042;-73
2021/03/03 08:36:20;;;;;;;69.72;29.48;;;10.10;99.90;;;;;;6271849;22;20058;-73
2021/03/03 08:38:46;;;;;;;64.93;29.98;;;10.20;99.90;;;;;;6272970;22;20143;-72
2021/03/03 08:41:33;;;;;;;59.45;29.02;;;10.40;99.90;;;;;;6268767;22;20449;-72
2021/03/03 08:44:16;;;;;;;60.05;31.17;;;10.40;99.90;;;;;;6273325;22;20439;-73
2021/03/03 08:46:42;;;;;;;58.13;31.58;;;10.50;99.90;;;;;;6273809;22;20086;-73
2021/03/03 08:49:07;;;;;;;61.85;33.78;;;10.60;99.90;;;;;;6271428;22;20039;-72
2021/03/03 08:51:44;;;;;;;66.22;32.97;;;10.80;99.90;;;;;;6273010;22;20007;-72
2021/03/03 08:54:14;;;;;;;63.25;32.53;;;10.80;99.90;;;;;;6271521;22;20026;-73
2021/03/03 08:56:44;;;;;;;58.15;31.45;;;10.90;99.90;;;;;;6273113;22;20014;-72
2021/03/03 08:59:32;;;;;;;62.72;32.45;;;10.90;99.90;;;;;;6273490;22;20007;-72
2021/03/03 09:02:18;;;;;;;62.92;34.17;;;11.10;99.90;;;;;;6271359;22;20098;-73
2021/03/03 09:04:51;;;;;;;64.10;33.15;;;11.30;99.90;;;;;;6272448;22;20011;-72
2021/03/03 09:07:25;;;;;;;70.47;34.65;;;11.40;99.90;;;;;;6270983;22;20419;-73
2021/03/03 09:10:07;;;;;;;58.22;33.60;;;11.50;99.90;;;;;;6273455;22;20010;-72
2021/03/03 09:12:37;;;;;;;70.18;33.83;;;11.60;99.90;;;;;;6273251;22;20003;-72
2021/03/03 09:15:06;;;;;;;72.72;37.30;;;11.70;99.90;;;;;;6270917;22;20421;-73
2021/03/03 09:17:34;;;;;;;69.72;38.78;;;11.80;99.90;;;;;;6271544;22;20424;-72
2021/03/03 09:20:10;;;;;;;77.72;39.25;;;11.80;99.90;;;;;;6270142;22;20006;-72
2021/03/03 09:22:38;;;;;;;72.68;36.65;;;11.90;99.90;;;;;;6273069;22;20035;-73
2021/03/03 09:25:04;;;;;;;76.80;35.83;;;12.00;99.90;;;;;;6270646;22;20055;-73
2021/03/03 09:27:30;;;;;;;74.88;39.58;;;12.10;99.90;;;;;;6271902;22;20485;-73
2021/03/03 09:29:56;;;;;;;80.68;40.15;;;12.10;99.90;;;;;;6272950;22;20000;-73
2021/03/03 09:32:23;;;;;;;76.70;42.50;;;12.10;99.90;;;;;;6273342;22;20416;-72
2021/03/03 09:35:00;;;;;;;72.53;38.63;;;12.20;99.90;;;;;;6268376;22;20082;-73
2021/03/03 09:37:26;;;;;;;74.05;40.85;;;12.30;99.90;;;;;;6272737;22;20109;-73
2021/03/03 09:39:57;;;;;;;66.93;36.05;;;12.50;99.90;;;;;;6269996;22;19999;-73
2021/03/03 09:42:23;;;;;;;72.78;37.60;;;12.60;99.90;;;;;;6272978;22;20007;-73
2021/03/03 09:44:54;;;;;;;69.75;37.38;;;12.70;99.90;;;;;;6273704;22;20000;-73
2021/03/03 09:47:31;;;;;;;63.92;37.63;;;12.80;99.90;;;;;;6272591;22;20007;-75
2021/03/03 09:49:57;;;;;;;79.93;42.53;;;13.00;99.90;;;;;;6268630;22;20004;-75
2021/03/03 09:52:32;;;;;;;73.18;39.15;;;13.10;99.90;;;;;;6272613;22;20000;-76
2021/03/03 09:54:58;;;;;;;74.82;41.40;;;13.30;99.90;;;;;;6271392;22;20012;-73
2021/03/03 09:57:24;;;;;;;73.47;44.22;;;13.30;99.90;;;;;;6273130;22;20117;-73
2021/03/03 09:59:51;;;;;;;78.53;41.60;;;13.40;99.90;;;;;;6270240;22;20086;-73
2021/03/03 10:02:19;;;;;;;78.97;43.53;;;13.40;99.90;;;;;;6271465;22;20003;-73
2021/03/03 10:04:46;;;;;;;73.03;40.85;;;13.50;99.90;;;;;;6269820;22;20033;-73
2021/03/03 10:07:14;;;;;;;78.10;42.53;;;13.50;99.90;;;;;;6274748;22;20008;-73
2021/03/03 10:09:44;;;;;;;78.50;42.05;;;13.50;99.90;;;;;;6274016;22;20061;-72
2021/03/03 10:12:12;;;;;;;84.15;41.70;;;13.60;99.90;;;;;;6273671;22;20000;-73
2021/03/03 10:14:54;;;;;;;75.63;42.70;;;13.70;99.90;;;;;;6274363;22;19996;-73
2021/03/03 10:17:30;;;;;;;72.40;37.95;;;13.70;99.90;;;;;;6272654;22;20329;-72
2021/03/03 10:19:56;;;;;;;71.03;37.72;;;13.90;99.90;;;;;;6274299;22;20011;-73
2021/03/03 10:22:22;;;;;;;77.63;39.75;;;14.00;99.90;;;;;;6273751;22;20015;-72
2021/03/03 10:25:06;;;;;;;71.43;37.88;;;14.10;99.90;;;;;;6273674;22;20023;-72
2021/03/03 10:27:39;;;;;;;71.50;37.55;;;14.20;99.90;;;;;;6273841;22;20008;-73
2021/03/03 10:30:31;;;;;;;75.85;39.72;;;14.20;99.90;;;;;;6274245;22;20007;-73
2021/03/03 10:32:57;;;;;;;69.25;37.97;;;14.30;99.90;;;;;;6272457;22;20031;-72
2021/03/03 10:35:25;;;;;;;69.47;37.72;;;14.40;99.90;;;;;;6269241;22;20000;-72
2021/03/03 10:37:51;;;;;;;70.78;39.20;;;14.50;99.90;;;;;;6274183;22;20015;-72
2021/03/03 10:40:19;;;;;;;68.38;36.70;;;14.60;99.90;;;;;;6272275;22;20328;-73
2021/03/03 10:42:45;;;;;;;66.28;36.50;;;14.50;99.90;;;;;;6273333;22;20004;-73
2021/03/03 10:45:17;;;;;;;72.93;39.28;;;14.50;99.90;;;;;;6273644;22;20054;-73
2021/03/03 10:47:49;;;;;;;74.57;40.38;;;14.60;99.90;;;;;;6271763;22;20030;-72
2021/03/03 10:50:15;;;;;;;73.72;36.67;;;14.70;99.90;;;;;;6273331;22;20000;-72
2021/03/03 10:53:02;;;;;;;71.57;35.83;;;14.80;99.90;;;;;;6270888;22;20371;-73
2021/03/03 10:55:36;;;;;;;71.13;38.53;;;14.90;99.90;;;;;;6273727;22;20007;-73
2021/03/03 10:58:13;;;;;;;68.30;34.60;;;14.90;99.90;;;;;;6270695;22;20000;-73
2021/03/03 11:01:02;;;;;;;70.22;36.83;;;15.00;99.90;;;;;;6273133;22;20098;-73
2021/03/03 11:03:29;;;;;;;65.38;37.55;;;15.10;99.90;;;;;;6270280;22;20057;-73
2021/03/03 11:05:59;;;;;;;70.75;35.42;;;15.10;99.90;;;;;;6270088;22;20065;-73
2021/03/03 11:08:26;;;;;;;72.70;38.17;;;15.20;99.90;;;;;;6270209;22;20087;-73
2021/03/03 11:11:06;;;;;;;69.85;37.47;;;15.20;99.90;;;;;;6271076;22;20018;-73
2021/03/03 11:13:35;;;;;;;66.75;37.40;;;15.30;99.90;;;;;;6270971;22;19995;-73
2021/03/03 11:16:02;;;;;;;65.07;35.00;;;15.30;99.90;;;;;;6267970;22;20087;-73
2021/03/03 11:18:28;;;;;;;77.60;38.65;;;15.40;99.90;;;;;;6272498;22;19996;-73
2021/03/03 11:20:53;;;;;;;67.93;35.78;;;15.50;99.90;;;;;;6272961;22;20008;-72
2021/03/03 11:23:19;;;;;;;61.72;34.03;;;15.60;99.90;;;;;;6271484;22;20011;-73
2021/03/03 11:25:45;;;;;;;63.50;34.70;;;15.60;99.90;;;;;;6273284;22;20031;-73
2021/03/03 11:28:10;;;;;;;67.97;36.63;;;15.70;99.90;;;;;;6273977;22;20006;-73
2021/03/03 11:30:36;;;;;;;66.57;33.78;;;15.70;99.90;;;;;;6272999;22;20363;-73
2021/03/03 11:33:02;;;;;;;71.07;35.97;;;15.70;99.90;;;;;;6272806;22;20003;-73
2021/03/03 11:35:28;;;;;;;64.18;32.25;;;15.80;99.90;;;;;;6273294;22;20082;-73
2021/03/03 11:37:53;;;;;;;65.97;34.10;;;15.70;99.90;;;;;;6269619;22;20421;-73
2021/03/03 11:40:19;;;;;;;68.55;33.70;;;15.80;99.90;;;;;;6274673;22;20003;-73
2021/03/03 11:42:45;;;;;;;53.97;32.90;;;15.90;99.90;;;;;;6273666;22;20003;-73
2021/03/03 11:45:11;;;;;;;65.88;32.55;;;16.00;99.90;;;;;;6274223;22;20003;-73
2021/03/03 11:47:37;;;;;;;60.95;33.25;;;15.90;99.90;;;;;;6272515;22;20004;-73
2021/03/03 11:50:04;;;;;;;63.08;33.28;;;15.90;99.90;;;;;;6273628;22;20011;-73
2021/03/03 11:52:29;;;;;;;59.33;32.15;;;16.10;99.90;;;;;;6274239;22;20000;-73
2021/03/03 11:54:55;;;;;;;59.13;31.58;;;16.20;99.90;;;;;;6270088;22;20321;-73
2021/03/03 11:57:20;;;;;;;64.15;32.72;;;16.20;99.90;;;;;;6271093;22;20078;-73
2021/03/03 11:59:46;;;;;;;59.08;30.25;;;16.20;99.90;;;;;;6273721;22;20008;-73
2021/03/03 12:02:12;;;;;;;58.42;29.92;;;16.30;99.90;;;;;;6266343;22;20035;-73
2021/03/03 12:04:37;;;;;;;51.30;27.15;;;16.30;99.90;;;;;;6270306;22;20011;-73
2021/03/03 12:07:03;;;;;;;54.13;29.33;;;16.30;99.90;;;;;;6270747;22;20012;-73
2021/03/03 12:09:29;;;;;;;62.60;31.50;;;16.40;99.90;;;;;;6269721;22;20412;-73
2021/03/03 12:11:54;;;;;;;57.85;29.92;;;16.40;99.90;;;;;;6271599;22;20413;-73
2021/03/03 12:14:20;;;;;;;58.22;30.42;;;16.40;99.90;;;;;;6271562;22;20000;-73
2021/03/03 12:16:46;;;;;;;58.53;28.00;;;16.30;99.90;;;;;;6272184;22;20008;-73
2021/03/03 12:19:12;;;;;;;60.30;28.88;;;16.40;99.90;;;;;;6272879;22;20075;-73
2021/03/03 12:21:38;;;;;;;61.33;30.20;;;16.40;99.90;;;;;;6272541;22;20452;-73
2021/03/03 12:24:04;;;;;;;55.35;28.95;;;16.40;99.90;;;;;;6272631;22;19996;-73
2021/03/03 12:26:29;;;;;;;59.63;29.83;;;16.50;99.90;;;;;;6271785;22;20089;-73
2021/03/03 12:28:55;;;;;;;54.22;27.90;;;16.50;99.90;;;;;;6274196;22;20321;-73
2021/03/03 12:31:20;;;;;;;57.38;29.65;;;16.60;99.90;;;;;;6269872;22;20000;-72
2021/03/03 12:33:46;;;;;;;62.00;30.25;;;16.60;99.90;;;;;;6270339;22;20436;-73
2021/03/03 12:36:12;;;;;;;61.45;29.30;;;16.70;99.90;;;;;;6269385;22;20008;-72
2021/03/03 12:38:37;;;;;;;55.08;29.13;;;16.70;99.90;;;;;;6273599;22;20004;-73
2021/03/03 12:41:03;;;;;;;56.72;28.83;;;16.60;99.90;;;;;;6270737;22;20080;-72
2021/03/03 12:43:30;;;;;;;61.58;31.83;;;16.70;99.90;;;;;;6273323;22;20491;-73